createdAt,value
2019-05-12T00:00:22.268Z,11.60
2019-05-12T00:02:51.369Z,11.80
2019-05-12T00:05:20.525Z,12.00
2019-05-12T00:07:49.487Z,12.10
2019-05-12T00:10:18.829Z,12.10
2019-05-12T00:12:48.534Z,11.70
2019-05-12T00:15:19.095Z,11.50
2019-05-12T00:17:48.710Z,11.10
2019-05-12T00:20:18.439Z,11.30
2019-05-12T00:22:50.700Z,11.60
2019-05-12T00:25:19.656Z,11.30
2019-05-12T00:27:48.899Z,11.40
2019-05-12T00:30:52.364Z,11.70
2019-05-12T00:33:21.531Z,11.90
2019-05-12T00:35:50.574Z,11.80
2019-05-12T00:38:19.413Z,11.70
2019-05-12T00:40:48.334Z,11.60
2019-05-12T00:43:18.816Z,11.60
2019-05-12T00:45:48.307Z,11.70
2019-05-12T00:48:17.890Z,11.40
2019-05-12T00:50:48.555Z,11.70
2019-05-12T00:53:18.895Z,11.40
2019-05-12T00:55:50.201Z,11.60
2019-05-12T00:58:19.677Z,11.30
2019-05-12T01:00:48.870Z,11.40
2019-05-12T01:03:18.901Z,11.40
2019-05-12T01:05:48.663Z,11.60
2019-05-12T01:08:18.728Z,11.70
2019-05-12T01:10:48.020Z,11.90
2019-05-12T01:13:18.671Z,12.00
2019-05-12T01:15:48.131Z,12.10
2019-05-12T01:18:18.127Z,12.00
2019-05-12T01:20:47.984Z,12.00
2019-05-12T01:23:19.304Z,11.80
2019-05-12T01:25:47.795Z,11.90
2019-05-12T01:28:18.476Z,12.00
2019-05-12T01:30:47.996Z,11.90
2019-05-12T01:33:18.399Z,11.80
2019-05-12T01:35:48.251Z,11.50
2019-05-12T01:38:18.232Z,11.70
2019-05-12T01:40:47.951Z,11.90
2019-05-12T01:43:18.693Z,11.90
2019-05-12T01:45:48.366Z,11.90
2019-05-12T01:48:18.414Z,11.90
2019-05-12T01:50:47.706Z,11.70
2019-05-12T01:53:18.129Z,11.80
2019-05-12T01:55:48.529Z,11.80
2019-05-12T01:58:19.321Z,11.50
2019-05-12T02:00:48.719Z,11.60
2019-05-12T02:03:17.967Z,11.60
2019-05-12T02:05:50.282Z,11.70
2019-05-12T02:08:24.598Z,11.80
2019-05-12T02:11:12.586Z,11.80
2019-05-12T02:13:41.579Z,11.60
2019-05-12T02:16:10.517Z,11.70
2019-05-12T02:18:39.509Z,11.80
2019-05-12T02:21:08.509Z,11.80
2019-05-12T02:23:38.667Z,11.90
2019-05-12T02:26:08.340Z,11.80
2019-05-12T02:28:39.398Z,11.60
2019-05-12T02:31:09.468Z,11.50
2019-05-12T02:33:38.584Z,11.70
2019-05-12T02:36:07.436Z,11.70
2019-05-12T02:38:36.340Z,11.80
2019-05-12T02:41:05.590Z,11.70
2019-05-12T02:43:34.895Z,11.60
2019-05-12T02:46:04.923Z,11.50
2019-05-12T02:48:35.609Z,11.60
2019-05-12T02:51:05.579Z,11.20
2019-05-12T02:53:35.358Z,10.90
2019-05-12T02:56:05.200Z,10.60
2019-05-12T02:58:36.723Z,10.80
2019-05-12T03:01:05.953Z,10.80
2019-05-12T03:03:37.053Z,10.90
2019-05-12T03:06:06.109Z,11.00
2019-05-12T03:08:36.493Z,11.30
2019-05-12T03:11:06.223Z,11.40
2019-05-12T03:13:35.461Z,11.40
2019-05-12T03:16:05.074Z,11.40
2019-05-12T03:18:34.967Z,11.30
2019-05-12T03:21:05.564Z,11.00
2019-05-12T03:23:35.350Z,11.20
2019-05-12T03:26:05.143Z,11.40
2019-05-12T03:28:35.523Z,11.20
2019-05-12T03:31:07.754Z,10.90
2019-05-12T03:33:42.847Z,11.20
2019-05-12T03:36:08.811Z,11.30
2019-05-12T03:38:36.590Z,11.40
2019-05-12T03:41:05.601Z,11.10
2019-05-12T03:43:35.262Z,10.70
2019-05-12T03:46:05.394Z,10.90
2019-05-12T03:48:35.045Z,10.70
2019-05-12T03:51:05.674Z,11.00
2019-05-12T03:53:35.491Z,11.10
2019-05-12T03:56:04.652Z,11.20
2019-05-12T03:58:34.716Z,10.70
2019-05-12T04:01:04.866Z,11.00
2019-05-12T04:03:34.640Z,11.00
2019-05-12T04:06:05.045Z,10.90
2019-05-12T04:08:34.849Z,10.90
2019-05-12T04:11:05.263Z,11.10
2019-05-12T04:13:34.644Z,11.10
2019-05-12T04:16:04.875Z,10.60
2019-05-12T04:18:34.965Z,10.40
2019-05-12T04:21:05.516Z,10.50
2019-05-12T04:23:37.736Z,10.30
2019-05-12T04:26:11.791Z,10.60
2019-05-12T04:28:37.494Z,10.80
2019-05-12T04:31:06.284Z,10.60
2019-05-12T04:33:35.362Z,10.90
2019-05-12T04:36:05.615Z,10.80
2019-05-12T04:38:35.594Z,11.10
2019-05-12T04:41:05.947Z,11.00
2019-05-12T04:43:35.500Z,11.00
2019-05-12T04:46:05.260Z,10.60
2019-05-12T04:48:35.723Z,10.40
2019-05-12T04:51:05.310Z,10.60
2019-05-12T04:53:35.172Z,10.60
2019-05-12T04:56:14.742Z,10.40
2019-05-12T04:58:35.352Z,10.50
2019-05-12T05:01:06.466Z,10.60
2019-05-12T05:03:35.156Z,10.80
2019-05-12T05:06:04.548Z,10.60
2019-05-12T05:08:34.921Z,10.90
2019-05-12T05:11:04.256Z,10.70
2019-05-12T05:13:36.811Z,10.20
2019-05-12T05:16:05.433Z,10.50
2019-05-12T05:18:34.529Z,10.10
2019-05-12T05:21:04.666Z,10.40
2019-05-12T05:23:33.645Z,10.70
2019-05-12T05:26:03.318Z,10.30
2019-05-12T05:28:33.961Z,10.20
2019-05-12T05:31:03.636Z,10.50
2019-05-12T05:33:34.042Z,10.70
2019-05-12T05:36:03.522Z,10.70
2019-05-12T05:38:34.310Z,10.90
2019-05-12T05:41:06.042Z,10.70
2019-05-12T05:43:33.917Z,10.70
2019-05-12T05:46:13.853Z,10.80
2019-05-12T05:48:43.951Z,10.90
2019-05-12T05:51:13.748Z,10.70
2019-05-12T05:53:44.257Z,10.60
2019-05-12T05:56:14.696Z,10.80
2019-05-12T05:58:47.103Z,10.60
2019-05-12T06:01:14.810Z,10.30
2019-05-12T06:03:44.274Z,10.30
2019-05-12T06:06:15.429Z,10.60
2019-05-12T06:08:57.088Z,10.50
2019-05-12T06:11:28.380Z,10.50
2019-05-12T06:13:56.573Z,10.80
2019-05-12T06:16:25.517Z,10.90
2019-05-12T06:18:54.616Z,11.00
2019-05-12T06:21:24.132Z,11.00
2019-05-12T06:23:54.046Z,10.90
2019-05-12T06:26:30.870Z,10.90
2019-05-12T06:28:57.582Z,10.80
2019-05-12T06:31:29.616Z,10.60
2019-05-12T06:33:55.336Z,10.20
2019-05-12T06:36:27.253Z,10.60
2019-05-12T06:38:54.802Z,10.30
2019-05-12T06:41:25.848Z,10.70
2019-05-12T06:43:54.500Z,11.00
2019-05-12T06:46:25.844Z,11.30
2019-05-12T06:48:54.476Z,11.50
2019-05-12T06:51:25.805Z,11.60
2019-05-12T06:53:54.130Z,11.60
2019-05-12T06:56:23.611Z,11.70
2019-05-12T06:58:53.475Z,11.80
2019-05-12T07:01:24.221Z,11.70
2019-05-12T07:03:53.484Z,11.70
2019-05-12T07:06:24.747Z,11.70
2019-05-12T07:09:05.420Z,11.60
2019-05-12T07:11:24.491Z,11.40
2019-05-12T07:14:02.232Z,11.40
2019-05-12T07:16:30.033Z,11.50
2019-05-12T07:18:54.955Z,11.40
2019-05-12T07:21:27.028Z,11.30
2019-05-12T07:23:54.405Z,11.30
2019-05-12T07:26:23.615Z,11.40
2019-05-12T07:28:54.058Z,11.50
2019-05-12T07:31:23.425Z,11.40
2019-05-12T07:33:54.197Z,11.50
2019-05-12T07:36:24.339Z,11.70
2019-05-12T07:39:03.539Z,11.80
2019-05-12T07:41:26.545Z,11.60
2019-05-12T07:44:00.798Z,11.80
2019-05-12T07:46:29.181Z,11.60
2019-05-12T07:49:03.897Z,11.80
2019-05-12T07:51:38.801Z,11.90
2019-05-12T07:54:05.372Z,11.80
2019-05-12T07:56:41.002Z,11.30
2019-05-12T07:59:13.439Z,11.60
2019-05-12T08:01:48.161Z,11.60
2019-05-12T08:04:13.900Z,11.70
2019-05-12T08:06:46.942Z,12.10
2019-05-12T08:09:32.266Z,12.10
2019-05-12T08:12:09.768Z,12.10
2019-05-12T08:14:41.068Z,12.10
2019-05-12T08:17:12.151Z,12.40
2019-05-12T08:19:40.645Z,12.30
2019-05-12T08:22:09.767Z,12.30
2019-05-12T08:24:43.612Z,12.30
2019-05-12T08:27:09.203Z,12.30
2019-05-12T08:29:38.256Z,12.50
2019-05-12T08:32:09.988Z,12.70
2019-05-12T08:34:39.948Z,12.50
2019-05-12T08:37:08.607Z,12.50
2019-05-12T08:39:39.042Z,12.70
2019-05-12T08:42:08.379Z,12.70
2019-05-12T08:44:40.556Z,12.90
2019-05-12T08:47:08.023Z,12.70
2019-05-12T08:49:50.254Z,12.90
2019-05-12T08:52:07.521Z,12.80
2019-05-12T08:54:39.629Z,13.00
2019-05-12T08:57:07.029Z,13.20
2019-05-12T08:59:36.379Z,13.20
2019-05-12T09:02:10.337Z,13.40
2019-05-12T09:04:36.522Z,13.30
2019-05-12T09:07:05.788Z,13.70
2019-05-12T09:09:35.182Z,13.50
2019-05-12T09:12:05.688Z,13.60
2019-05-12T09:14:41.120Z,13.70
2019-05-12T09:17:07.134Z,14.00
2019-05-12T09:19:36.182Z,14.00
2019-05-12T09:22:16.299Z,14.00
2019-05-12T09:24:35.815Z,13.60
2019-05-12T09:27:08.738Z,13.50
2019-05-12T09:29:35.329Z,13.80
2019-05-12T09:32:07.946Z,14.20
2019-05-12T09:34:34.913Z,14.10
2019-05-12T09:37:04.031Z,14.20
2019-05-12T09:39:42.339Z,14.30
2019-05-12T09:42:04.485Z,14.20
2019-05-12T09:44:34.185Z,14.30
2019-05-12T09:47:04.063Z,14.50
2019-05-12T09:49:39.325Z,14.30
2019-05-12T09:52:05.552Z,14.30
2019-05-12T09:54:40.679Z,14.70
2019-05-12T09:57:05.614Z,14.30
2019-05-12T09:59:34.476Z,14.20
2019-05-12T10:02:03.823Z,14.70
2019-05-12T10:04:33.134Z,14.80
2019-05-12T10:07:03.822Z,15.00
2019-05-12T10:09:33.553Z,14.80
2019-05-12T10:12:05.323Z,15.00
2019-05-12T10:14:33.228Z,15.40
2019-05-12T10:17:03.601Z,15.60
2019-05-12T10:19:34.054Z,15.60
2019-05-12T10:22:03.553Z,15.80
2019-05-12T10:24:40.539Z,16.10
2019-05-12T10:27:03.751Z,15.40
2019-05-12T10:29:33.076Z,15.70
2019-05-12T10:32:04.032Z,15.90
2019-05-12T10:34:38.124Z,16.70
2019-05-12T10:37:04.164Z,16.90
2019-05-12T10:39:33.610Z,19.10
2019-05-12T10:42:02.762Z,19.90
2019-05-12T10:44:39.432Z,20.30
2019-05-12T10:47:04.506Z,20.60
2019-05-12T10:49:33.916Z,21.50
2019-05-12T10:52:03.934Z,22.10
2019-05-12T10:54:34.250Z,22.40
2019-05-12T10:57:04.999Z,22.10
2019-05-12T10:59:38.844Z,19.90
2019-05-12T11:02:06.082Z,19.40
2019-05-12T11:04:40.536Z,21.30
2019-05-12T11:07:06.133Z,21.70
2019-05-12T11:09:35.250Z,22.70
2019-05-12T11:12:04.401Z,21.70
2019-05-12T11:14:34.168Z,20.60
2019-05-12T11:17:07.516Z,22.70
2019-05-12T11:19:40.709Z,23.20
2019-05-12T11:22:06.499Z,22.10
2019-05-12T11:24:35.337Z,21.10
2019-05-12T11:27:04.412Z,19.80
2019-05-12T11:29:45.742Z,21.90
2019-05-12T11:32:04.248Z,23.40
2019-05-12T11:34:33.631Z,22.80
2019-05-12T11:37:03.430Z,22.40
2019-05-12T11:39:36.737Z,23.00
2019-05-12T11:42:04.267Z,21.10
2019-05-12T11:44:33.792Z,20.30
2019-05-12T11:47:03.648Z,19.00
2019-05-12T11:49:33.489Z,21.70
2019-05-12T11:52:07.358Z,23.30
2019-05-12T11:54:33.646Z,20.80
2019-05-12T11:57:02.817Z,21.30
2019-05-12T11:59:34.028Z,19.50
2019-05-12T12:02:02.672Z,20.20
2019-05-12T12:04:47.055Z,21.80
2019-05-12T12:07:16.955Z,21.80
2019-05-12T12:09:49.401Z,22.80
2019-05-12T12:12:16.404Z,21.50
2019-05-12T12:14:50.009Z,23.80
2019-05-12T12:17:15.966Z,23.90
2019-05-12T12:19:46.959Z,22.10
2019-05-12T12:22:20.259Z,21.30
2019-05-12T12:24:46.264Z,18.90
2019-05-12T12:27:15.288Z,18.60
2019-05-12T12:29:44.372Z,18.70
2019-05-12T12:32:16.872Z,19.30
2019-05-12T12:34:44.238Z,19.80
2019-05-12T12:37:18.971Z,20.20
2019-05-12T12:39:46.669Z,19.00
2019-05-12T12:42:15.707Z,19.40
2019-05-12T12:44:44.645Z,19.40
2019-05-12T12:47:14.005Z,19.60
2019-05-12T12:49:45.239Z,19.40
2019-05-12T12:52:13.893Z,19.70
2019-05-12T12:54:43.871Z,19.70
2019-05-12T12:57:13.623Z,19.80
2019-05-12T12:59:51.044Z,18.40
2019-05-12T13:02:15.607Z,19.00
2019-05-12T13:04:48.440Z,19.10
2019-05-12T13:07:15.312Z,19.60
2019-05-12T13:09:44.203Z,18.90
2019-05-12T13:12:16.033Z,19.20
2019-05-12T13:14:44.350Z,19.60
2019-05-12T13:17:14.127Z,19.70
2019-05-12T13:19:43.754Z,19.70
2019-05-12T13:22:17.163Z,19.70
2019-05-12T13:24:45.353Z,19.40
2019-05-12T13:27:14.452Z,19.50
2019-05-12T13:29:44.818Z,17.80
2019-05-12T13:32:13.890Z,18.60
2019-05-12T13:34:43.146Z,18.10
2019-05-12T13:37:15.458Z,18.70
2019-05-12T13:39:55.211Z,19.50
2019-05-12T13:42:13.726Z,20.00
2019-05-12T13:44:43.600Z,19.20
2019-05-12T13:47:14.022Z,18.70
2019-05-12T13:49:47.565Z,18.30
2019-05-12T13:52:20.342Z,18.50
2019-05-12T13:54:47.445Z,18.80
2019-05-12T13:57:16.675Z,19.00
2019-05-12T13:59:45.705Z,18.20
2019-05-12T14:02:22.155Z,18.50
2019-05-12T14:04:45.307Z,18.50
2019-05-12T14:07:15.727Z,18.30
2019-05-12T14:09:44.925Z,17.70
2019-05-12T14:12:13.775Z,17.70
2019-05-12T14:14:46.678Z,18.50
2019-05-12T14:17:15.675Z,18.60
2019-05-12T14:19:46.150Z,19.00
2019-05-12T14:22:21.188Z,19.50
2019-05-12T14:24:46.858Z,19.20
2019-05-12T14:27:19.035Z,18.70
2019-05-12T14:29:46.992Z,18.70
2019-05-12T14:32:17.468Z,18.40
2019-05-12T14:34:50.945Z,19.00
2019-05-12T14:37:17.568Z,18.40
2019-05-12T14:39:50.297Z,18.60
2019-05-12T14:42:17.413Z,17.90
2019-05-12T14:44:49.698Z,17.50
2019-05-12T14:47:19.100Z,18.20
2019-05-12T14:49:47.766Z,18.20
2019-05-12T14:52:16.838Z,18.70
2019-05-12T14:54:45.771Z,19.10
2019-05-12T14:57:14.694Z,18.70
2019-05-12T14:59:44.091Z,18.30
2019-05-12T15:02:19.479Z,17.40
2019-05-12T15:04:47.874Z,17.50
2019-05-12T15:07:16.927Z,17.60
2019-05-12T15:09:45.888Z,17.40
2019-05-12T15:12:14.739Z,17.50
2019-05-12T15:14:43.998Z,17.80
2019-05-12T15:17:21.982Z,17.60
2019-05-12T15:19:44.129Z,17.10
2019-05-12T15:22:14.802Z,17.60
2019-05-12T15:24:44.222Z,17.90
2019-05-12T15:27:13.558Z,17.00
2019-05-12T15:29:42.878Z,17.70
2019-05-12T15:32:12.029Z,17.20
2019-05-12T15:34:40.997Z,17.20
2019-05-12T15:37:10.136Z,17.40
2019-05-12T15:39:39.066Z,18.00
2019-05-12T15:42:08.106Z,17.90
2019-05-12T15:44:37.156Z,17.60
2019-05-12T15:47:06.143Z,17.50
2019-05-12T15:49:34.959Z,16.90
2019-05-12T15:52:03.947Z,16.90
2019-05-12T15:54:35.790Z,17.50
2019-05-12T15:57:04.160Z,17.30
2019-05-12T15:59:35.524Z,17.70
2019-05-12T16:02:12.411Z,18.30
2019-05-12T16:04:42.866Z,17.00
2019-05-12T16:07:05.930Z,17.10
2019-05-12T16:09:34.891Z,17.30
2019-05-12T16:12:09.336Z,17.20
2019-05-12T16:14:36.724Z,18.00
2019-05-12T16:17:06.639Z,16.80
2019-05-12T16:19:35.781Z,16.90
2019-05-12T16:22:04.787Z,17.10
2019-05-12T16:24:34.148Z,16.60
2019-05-12T16:27:03.587Z,16.30
2019-05-12T16:29:33.993Z,16.50
2019-05-12T16:32:04.546Z,16.40
2019-05-12T16:34:38.498Z,16.10
2019-05-12T16:37:04.360Z,16.20
2019-05-12T16:39:37.138Z,17.00
2019-05-12T16:42:08.224Z,17.20
2019-05-12T16:44:34.886Z,16.30
2019-05-12T16:47:04.368Z,16.60
2019-05-12T16:49:34.727Z,16.40
2019-05-12T16:52:13.754Z,16.50
2019-05-12T16:54:43.958Z,16.30
2019-05-12T16:57:18.004Z,16.40
2019-05-12T16:59:43.476Z,16.60
2019-05-12T17:02:13.773Z,16.30
2019-05-12T17:04:42.845Z,16.30
2019-05-12T17:07:17.274Z,17.10
2019-05-12T17:09:43.817Z,17.30
2019-05-12T17:12:14.732Z,17.60
2019-05-12T17:14:48.753Z,16.90
2019-05-12T17:17:14.536Z,16.50
2019-05-12T17:19:43.509Z,17.10
2019-05-12T17:22:13.412Z,16.20
2019-05-12T17:24:44.696Z,16.10
2019-05-12T17:27:15.853Z,15.60
2019-05-12T17:29:43.987Z,15.20
2019-05-12T17:32:13.431Z,15.50
2019-05-12T17:34:45.825Z,15.50
2019-05-12T17:37:14.564Z,15.70
2019-05-12T17:39:43.915Z,16.20
2019-05-12T17:42:21.201Z,16.00
2019-05-12T17:44:43.719Z,15.60
2019-05-12T17:47:21.052Z,15.50
2019-05-12T17:49:43.719Z,15.00
2019-05-12T17:52:18.461Z,14.90
2019-05-12T17:54:43.576Z,15.10
2019-05-12T17:57:15.758Z,15.40
2019-05-12T17:59:44.775Z,15.50
2019-05-12T18:02:16.645Z,15.10
2019-05-12T18:04:44.315Z,15.10
2019-05-12T18:07:19.101Z,15.30
2019-05-12T18:09:45.038Z,14.70
2019-05-12T18:12:14.038Z,14.60
2019-05-12T18:14:52.006Z,14.80
2019-05-12T18:17:14.169Z,14.50
2019-05-12T18:19:44.383Z,14.40
2019-05-12T18:22:14.100Z,14.50
2019-05-12T18:24:49.318Z,14.30
2019-05-12T18:27:14.140Z,14.60
2019-05-12T18:29:44.176Z,14.50
2019-05-12T18:32:13.939Z,14.60
2019-05-12T18:34:44.592Z,14.80
2019-05-12T18:37:13.733Z,14.70
2019-05-12T18:39:43.704Z,14.70
2019-05-12T18:42:14.053Z,14.50
2019-05-12T18:44:43.886Z,14.80
2019-05-12T18:47:17.039Z,15.00
2019-05-12T18:49:47.628Z,14.50
2019-05-12T18:52:16.571Z,14.20
2019-05-12T18:54:52.277Z,14.00
2019-05-12T18:57:16.077Z,13.90
2019-05-12T18:59:46.203Z,14.10
2019-05-12T19:02:22.774Z,13.90
2019-05-12T19:04:46.309Z,13.90
2019-05-12T19:07:15.639Z,13.70
2019-05-12T19:09:47.072Z,13.90
2019-05-12T19:12:17.879Z,13.80
2019-05-12T19:14:46.093Z,14.00
2019-05-12T19:17:15.201Z,14.10
2019-05-12T19:19:46.134Z,14.20
2019-05-12T19:22:14.817Z,14.40
2019-05-12T19:24:44.353Z,14.20
2019-05-12T19:27:18.982Z,14.30
2019-05-12T19:29:48.343Z,14.00
2019-05-12T19:32:15.274Z,13.90
2019-05-12T19:34:46.237Z,14.00
2019-05-12T19:37:19.609Z,14.20
2019-05-12T19:39:47.091Z,14.00
2019-05-12T19:42:20.328Z,14.20
2019-05-12T19:44:46.641Z,14.10
2019-05-12T19:47:15.520Z,14.30
2019-05-12T19:49:50.435Z,13.80
2019-05-12T19:52:15.360Z,14.00
2019-05-12T19:54:44.514Z,14.10
2019-05-12T19:57:22.193Z,14.10
2019-05-12T19:59:50.547Z,13.90
2019-05-12T20:02:14.674Z,14.00
2019-05-12T20:04:51.690Z,13.90
2019-05-12T20:07:14.199Z,13.80
2019-05-12T20:09:46.166Z,13.80
2019-05-12T20:12:19.012Z,13.90
2019-05-12T20:14:51.031Z,13.80
2019-05-12T20:17:18.168Z,13.50
2019-05-12T20:19:47.155Z,13.60
2019-05-12T20:22:16.039Z,13.40
2019-05-12T20:24:44.904Z,13.50
2019-05-12T20:27:17.095Z,13.40
2019-05-12T20:29:44.818Z,13.30
2019-05-12T20:32:14.006Z,13.30
2019-05-12T20:34:49.195Z,13.20
2019-05-12T20:37:16.734Z,12.90
2019-05-12T20:39:45.687Z,12.80
2019-05-12T20:42:17.823Z,12.80
2019-05-12T20:44:51.279Z,12.90
2019-05-12T20:47:17.344Z,12.80
2019-05-12T20:49:50.965Z,12.70
2019-05-12T20:52:16.769Z,12.90
2019-05-12T20:54:49.222Z,13.10
2019-05-12T20:57:16.112Z,13.00
2019-05-12T20:59:45.001Z,12.80
2019-05-12T21:02:14.183Z,12.70
2019-05-12T21:04:44.308Z,12.60
2019-05-12T21:07:21.561Z,12.60
2019-05-12T21:09:44.232Z,12.70
2019-05-12T21:12:13.829Z,12.60
2019-05-12T21:14:51.429Z,13.00
2019-05-12T21:17:15.956Z,12.80
2019-05-12T21:19:55.566Z,12.60
2019-05-12T21:22:15.222Z,12.60
2019-05-12T21:24:44.095Z,12.60
2019-05-12T21:27:17.935Z,12.80
2019-05-12T21:29:43.838Z,13.00
2019-05-12T21:32:16.715Z,12.90
2019-05-12T21:34:44.946Z,13.00
2019-05-12T21:37:14.089Z,13.10
2019-05-12T21:39:49.206Z,12.50
2019-05-12T21:42:13.790Z,12.30
2019-05-12T21:44:47.011Z,12.40
2019-05-12T21:47:13.921Z,12.50
2019-05-12T21:49:48.042Z,12.00
2019-05-12T21:52:13.771Z,11.90
2019-05-12T21:54:43.934Z,12.10
2019-05-12T21:57:12.999Z,12.20
2019-05-12T21:59:43.472Z,12.20
2019-05-12T22:02:14.117Z,12.20
2019-05-12T22:04:45.646Z,12.10
2019-05-12T22:07:15.041Z,12.30
2019-05-12T22:09:46.818Z,12.30
2019-05-12T22:12:23.493Z,11.80
2019-05-12T22:14:54.307Z,11.70
2019-05-12T22:17:26.437Z,11.80
2019-05-12T22:19:57.293Z,12.00
2019-05-12T22:22:33.318Z,11.90
2019-05-12T22:25:09.690Z,11.90
2019-05-12T22:27:37.441Z,11.70
2019-05-12T22:30:06.676Z,11.50
2019-05-12T22:32:35.605Z,11.40
2019-05-12T22:35:04.691Z,11.30
2019-05-12T22:37:34.954Z,11.40
2019-05-12T22:40:06.251Z,11.20
2019-05-12T22:42:34.924Z,11.30
2019-05-12T22:45:05.817Z,11.30
2019-05-12T22:47:34.376Z,11.40
2019-05-12T22:50:04.164Z,11.50
2019-05-12T22:52:38.679Z,11.50
2019-05-12T22:55:03.964Z,11.70
2019-05-12T22:57:35.593Z,11.80
2019-05-12T23:00:04.055Z,11.70
2019-05-12T23:02:33.791Z,11.60
2019-05-12T23:05:03.705Z,11.30
2019-05-12T23:07:33.139Z,11.20
2019-05-12T23:10:07.015Z,11.20
2019-05-12T23:12:34.278Z,11.10
2019-05-12T23:15:07.154Z,11.20
2019-05-12T23:17:38.982Z,11.20
2019-05-12T23:20:06.805Z,11.40
2019-05-12T23:22:36.865Z,11.40
2019-05-12T23:25:11.267Z,11.50
2019-05-12T23:27:36.804Z,11.70
2019-05-12T23:30:10.995Z,11.80
2019-05-12T23:32:45.246Z,11.80
2019-05-12T23:35:08.097Z,11.80
2019-05-12T23:37:40.185Z,11.80
2019-05-12T23:40:14.584Z,11.80
2019-05-12T23:42:41.523Z,11.30
2019-05-12T23:45:10.627Z,11.30
2019-05-12T23:47:39.468Z,11.30
2019-05-12T23:50:09.048Z,11.40
2019-05-12T23:52:37.942Z,11.40
2019-05-12T23:55:07.064Z,11.30
2019-05-12T23:57:35.912Z,11.20
